sensor_id;sensor_type;location;lat;lon;timestamp;P1;durP1;ratioP1;P2;durP2;ratioP2
50417;SDS011;36346;48.280;14.292;2023-05-10T00:01:51;8.30;;;8.28;;
50417;SDS011;36346;48.280;14.292;2023-05-10T00:04:19;7.75;;;7.73;;
50417;SDS011;36346;48.280;14.292;2023-05-10T00:06:47;7.23;;;7.22;;
50417;SDS011;36346;48.280;14.292;2023-05-10T00:09:15;7.19;;;7.19;;
50417;SDS011;36346;48.280;14.292;2023-05-10T00:11:43;7.15;;;7.15;;
50417;SDS011;36346;48.280;14.292;2023-05-10T00:14:11;7.13;;;7.12;;
50417;SDS011;36346;48.280;14.292;2023-05-10T00:16:39;7.13;;;7.12;;
50417;SDS011;36346;48.280;14.292;2023-05-10T00:19:07;7.04;;;7.04;;
50417;SDS011;36346;48.280;14.292;2023-05-10T00:21:35;7.33;;;7.33;;
50417;SDS011;36346;48.280;14.292;2023-05-10T00:24:03;7.26;;;7.25;;
50417;SDS011;36346;48.280;14.292;2023-05-10T00:26:31;7.24;;;7.22;;
50417;SDS011;36346;48.280;14.292;2023-05-10T00:29:00;7.47;;;7.46;;
50417;SDS011;36346;48.280;14.292;2023-05-10T00:31:28;7.12;;;7.11;;
50417;SDS011;36346;48.280;14.292;2023-05-10T00:33:57;7.13;;;7.11;;
50417;SDS011;36346;48.280;14.292;2023-05-10T00:36:25;7.10;;;7.09;;
50417;SDS011;36346;48.280;14.292;2023-05-10T00:38:53;7.35;;;7.34;;
50417;SDS011;36346;48.280;14.292;2023-05-10T00:41:21;7.13;;;7.12;;
50417;SDS011;36346;48.280;14.292;2023-05-10T00:43:49;6.97;;;6.95;;
50417;SDS011;36346;48.280;14.292;2023-05-10T00:46:17;7.14;;;7.14;;
50417;SDS011;36346;48.280;14.292;2023-05-10T00:48:46;7.17;;;7.17;;
50417;SDS011;36346;48.280;14.292;2023-05-10T00:51:14;7.04;;;7.04;;
50417;SDS011;36346;48.280;14.292;2023-05-10T00:53:42;6.58;;;6.58;;
50417;SDS011;36346;48.280;14.292;2023-05-10T00:56:12;6.34;;;6.34;;
50417;SDS011;36346;48.280;14.292;2023-05-10T00:58:40;6.33;;;6.33;;
50417;SDS011;36346;48.280;14.292;2023-05-10T01:01:08;7.07;;;7.07;;
50417;SDS011;36346;48.280;14.292;2023-05-10T01:03:37;6.18;;;6.18;;
50417;SDS011;36346;48.280;14.292;2023-05-10T01:06:07;6.49;;;6.49;;
50417;SDS011;36346;48.280;14.292;2023-05-10T01:08:35;5.97;;;5.97;;
50417;SDS011;36346;48.280;14.292;2023-05-10T01:11:04;6.29;;;6.29;;
50417;SDS011;36346;48.280;14.292;2023-05-10T01:16:07;6.20;;;6.19;;
50417;SDS011;36346;48.280;14.292;2023-05-10T01:18:36;5.84;;;5.84;;
50417;SDS011;36346;48.280;14.292;2023-05-10T01:21:12;6.30;;;6.30;;
50417;SDS011;36346;48.280;14.292;2023-05-10T01:24:40;6.35;;;6.35;;
50417;SDS011;36346;48.280;14.292;2023-05-10T01:30:08;6.41;;;6.41;;
50417;SDS011;36346;48.280;14.292;2023-05-10T01:33:06;6.19;;;6.19;;
50417;SDS011;36346;48.280;14.292;2023-05-10T01:36:05;6.85;;;6.85;;
50417;SDS011;36346;48.280;14.292;2023-05-10T01:38:49;6.46;;;6.46;;
50417;SDS011;36346;48.280;14.292;2023-05-10T01:41:36;6.59;;;6.59;;
50417;SDS011;36346;48.280;14.292;2023-05-10T01:44:28;6.64;;;6.64;;
50417;SDS011;36346;48.280;14.292;2023-05-10T01:49:39;6.42;;;6.38;;
50417;SDS011;36346;48.280;14.292;2023-05-10T01:52:12;6.29;;;6.27;;
50417;SDS011;36346;48.280;14.292;2023-05-10T01:54:44;6.19;;;6.18;;
50417;SDS011;36346;48.280;14.292;2023-05-10T01:57:17;6.54;;;6.54;;
50417;SDS011;36346;48.280;14.292;2023-05-10T01:59:49;6.66;;;6.63;;
50417;SDS011;36346;48.280;14.292;2023-05-10T02:02:20;6.42;;;6.42;;
50417;SDS011;36346;48.280;14.292;2023-05-10T02:04:49;6.74;;;6.74;;
50417;SDS011;36346;48.280;14.292;2023-05-10T02:07:18;6.46;;;6.46;;
50417;SDS011;36346;48.280;14.292;2023-05-10T02:09:48;6.73;;;6.72;;
50417;SDS011;36346;48.280;14.292;2023-05-10T02:12:18;6.06;;;6.05;;
50417;SDS011;36346;48.280;14.292;2023-05-10T02:14:48;6.61;;;6.60;;
50417;SDS011;36346;48.280;14.292;2023-05-10T02:17:18;6.40;;;6.40;;
50417;SDS011;36346;48.280;14.292;2023-05-10T02:19:47;6.53;;;6.53;;
50417;SDS011;36346;48.280;14.292;2023-05-10T02:22:18;6.35;;;6.35;;
50417;SDS011;36346;48.280;14.292;2023-05-10T02:24:48;6.24;;;6.24;;
50417;SDS011;36346;48.280;14.292;2023-05-10T02:27:18;6.79;;;6.78;;
50417;SDS011;36346;48.280;14.292;2023-05-10T02:29:47;6.72;;;6.72;;
50417;SDS011;36346;48.280;14.292;2023-05-10T02:32:17;6.02;;;6.02;;
50417;SDS011;36346;48.280;14.292;2023-05-10T02:34:46;6.47;;;6.47;;
50417;SDS011;36346;48.280;14.292;2023-05-10T02:37:19;6.40;;;6.40;;
50417;SDS011;36346;48.280;14.292;2023-05-10T02:39:49;6.61;;;6.61;;
50417;SDS011;36346;48.280;14.292;2023-05-10T02:42:19;6.35;;;6.35;;
50417;SDS011;36346;48.280;14.292;2023-05-10T02:44:52;6.65;;;6.65;;
50417;SDS011;36346;48.280;14.292;2023-05-10T02:47:23;6.85;;;6.85;;
50417;SDS011;36346;48.280;14.292;2023-05-10T02:49:51;5.82;;;5.82;;
50417;SDS011;36346;48.280;14.292;2023-05-10T02:52:21;6.11;;;6.11;;
50417;SDS011;36346;48.280;14.292;2023-05-10T02:54:54;6.24;;;6.24;;
50417;SDS011;36346;48.280;14.292;2023-05-10T02:57:27;6.16;;;6.16;;
50417;SDS011;36346;48.280;14.292;2023-05-10T03:00:02;5.96;;;5.96;;
50417;SDS011;36346;48.280;14.292;2023-05-10T03:02:31;6.37;;;6.37;;
50417;SDS011;36346;48.280;14.292;2023-05-10T03:04:59;6.47;;;6.47;;
50417;SDS011;36346;48.280;14.292;2023-05-10T03:07:28;6.16;;;6.16;;
50417;SDS011;36346;48.280;14.292;2023-05-10T03:09:58;5.66;;;5.66;;
50417;SDS011;36346;48.280;14.292;2023-05-10T03:15:25;6.10;;;6.10;;
50417;SDS011;36346;48.280;14.292;2023-05-10T03:18:10;6.43;;;6.43;;
50417;SDS011;36346;48.280;14.292;2023-05-10T03:20:44;6.39;;;6.39;;
50417;SDS011;36346;48.280;14.292;2023-05-10T03:25:58;6.88;;;6.88;;
50417;SDS011;36346;48.280;14.292;2023-05-10T03:28:27;6.85;;;6.85;;
50417;SDS011;36346;48.280;14.292;2023-05-10T03:30:55;6.84;;;6.84;;
50417;SDS011;36346;48.280;14.292;2023-05-10T03:33:24;6.53;;;6.53;;
50417;SDS011;36346;48.280;14.292;2023-05-10T03:35:52;6.61;;;6.61;;
50417;SDS011;36346;48.280;14.292;2023-05-10T03:38:20;6.73;;;6.73;;
50417;SDS011;36346;48.280;14.292;2023-05-10T03:40:48;6.82;;;6.82;;
50417;SDS011;36346;48.280;14.292;2023-05-10T03:43:16;6.53;;;6.53;;
50417;SDS011;36346;48.280;14.292;2023-05-10T03:45:43;6.31;;;6.31;;
50417;SDS011;36346;48.280;14.292;2023-05-10T03:48:11;6.30;;;6.30;;
50417;SDS011;36346;48.280;14.292;2023-05-10T03:50:42;6.92;;;6.92;;
50417;SDS011;36346;48.280;14.292;2023-05-10T03:53:10;7.96;;;7.96;;
50417;SDS011;36346;48.280;14.292;2023-05-10T03:55:38;7.06;;;7.06;;
50417;SDS011;36346;48.280;14.292;2023-05-10T03:58:06;6.34;;;6.34;;
50417;SDS011;36346;48.280;14.292;2023-05-10T04:00:34;7.00;;;7.00;;
50417;SDS011;36346;48.280;14.292;2023-05-10T04:03:03;6.57;;;6.57;;
50417;SDS011;36346;48.280;14.292;2023-05-10T04:05:31;6.71;;;6.71;;
50417;SDS011;36346;48.280;14.292;2023-05-10T04:07:59;6.83;;;6.83;;
50417;SDS011;36346;48.280;14.292;2023-05-10T04:10:30;6.95;;;6.95;;
50417;SDS011;36346;48.280;14.292;2023-05-10T04:12:58;6.90;;;6.89;;
50417;SDS011;36346;48.280;14.292;2023-05-10T04:15:25;7.30;;;7.30;;
50417;SDS011;36346;48.280;14.292;2023-05-10T04:17:53;7.20;;;7.20;;
50417;SDS011;36346;48.280;14.292;2023-05-10T04:20:21;7.45;;;7.45;;
50417;SDS011;36346;48.280;14.292;2023-05-10T04:22:49;6.72;;;6.72;;
50417;SDS011;36346;48.280;14.292;2023-05-10T04:25:17;6.70;;;6.70;;
50417;SDS011;36346;48.280;14.292;2023-05-10T04:27:45;6.51;;;6.50;;
50417;SDS011;36346;48.280;14.292;2023-05-10T04:30:13;6.88;;;6.88;;
50417;SDS011;36346;48.280;14.292;2023-05-10T04:32:41;6.51;;;6.51;;
50417;SDS011;36346;48.280;14.292;2023-05-10T04:35:09;6.60;;;6.60;;
50417;SDS011;36346;48.280;14.292;2023-05-10T04:37:38;6.80;;;6.80;;
50417;SDS011;36346;48.280;14.292;2023-05-10T04:40:06;7.16;;;7.16;;
50417;SDS011;36346;48.280;14.292;2023-05-10T04:42:34;7.15;;;7.13;;
50417;SDS011;36346;48.280;14.292;2023-05-10T04:45:02;7.05;;;7.05;;
50417;SDS011;36346;48.280;14.292;2023-05-10T04:47:30;6.83;;;6.83;;
50417;SDS011;36346;48.280;14.292;2023-05-10T04:49:58;7.16;;;7.16;;
50417;SDS011;36346;48.280;14.292;2023-05-10T04:52:26;7.61;;;7.61;;
50417;SDS011;36346;48.280;14.292;2023-05-10T04:54:54;7.51;;;7.51;;
50417;SDS011;36346;48.280;14.292;2023-05-10T04:57:22;8.04;;;8.04;;
50417;SDS011;36346;48.280;14.292;2023-05-10T04:59:50;8.83;;;8.83;;
50417;SDS011;36346;48.280;14.292;2023-05-10T05:02:18;8.66;;;8.66;;
50417;SDS011;36346;48.280;14.292;2023-05-10T05:04:46;8.60;;;8.60;;
50417;SDS011;36346;48.280;14.292;2023-05-10T05:07:14;8.63;;;8.63;;
50417;SDS011;36346;48.280;14.292;2023-05-10T05:09:42;8.47;;;8.47;;
50417;SDS011;36346;48.280;14.292;2023-05-10T05:12:10;8.68;;;8.68;;
50417;SDS011;36346;48.280;14.292;2023-05-10T05:14:41;8.53;;;8.53;;
50417;SDS011;36346;48.280;14.292;2023-05-10T05:17:09;9.61;;;9.61;;
50417;SDS011;36346;48.280;14.292;2023-05-10T05:19:37;9.54;;;9.54;;
50417;SDS011;36346;48.280;14.292;2023-05-10T05:22:06;9.45;;;9.45;;
50417;SDS011;36346;48.280;14.292;2023-05-10T05:24:35;9.63;;;9.63;;
50417;SDS011;36346;48.280;14.292;2023-05-10T05:27:05;9.66;;;9.66;;
50417;SDS011;36346;48.280;14.292;2023-05-10T05:29:34;9.62;;;9.62;;
50417;SDS011;36346;48.280;14.292;2023-05-10T05:32:01;9.38;;;9.38;;
50417;SDS011;36346;48.280;14.292;2023-05-10T05:34:29;9.37;;;9.37;;
50417;SDS011;36346;48.280;14.292;2023-05-10T05:36:57;9.76;;;9.76;;
50417;SDS011;36346;48.280;14.292;2023-05-10T05:39:25;9.88;;;9.88;;
50417;SDS011;36346;48.280;14.292;2023-05-10T05:41:53;10.77;;;10.77;;
50417;SDS011;36346;48.280;14.292;2023-05-10T05:44:21;11.16;;;11.15;;
50417;SDS011;36346;48.280;14.292;2023-05-10T05:46:49;10.33;;;10.33;;
50417;SDS011;36346;48.280;14.292;2023-05-10T05:49:17;10.10;;;10.10;;
50417;SDS011;36346;48.280;14.292;2023-05-10T05:51:45;10.42;;;10.35;;
50417;SDS011;36346;48.280;14.292;2023-05-10T05:54:13;10.34;;;10.28;;
50417;SDS011;36346;48.280;14.292;2023-05-10T05:56:41;10.54;;;10.54;;
50417;SDS011;36346;48.280;14.292;2023-05-10T05:59:09;10.48;;;10.48;;
50417;SDS011;36346;48.280;14.292;2023-05-10T06:01:37;9.92;;;9.92;;
50417;SDS011;36346;48.280;14.292;2023-05-10T06:04:05;10.51;;;10.51;;
50417;SDS011;36346;48.280;14.292;2023-05-10T06:06:33;10.44;;;10.44;;
50417;SDS011;36346;48.280;14.292;2023-05-10T06:09:01;10.01;;;10.01;;
50417;SDS011;36346;48.280;14.292;2023-05-10T06:11:29;10.34;;;10.34;;
50417;SDS011;36346;48.280;14.292;2023-05-10T06:13:59;10.55;;;10.55;;
50417;SDS011;36346;48.280;14.292;2023-05-10T06:16:27;9.84;;;9.84;;
50417;SDS011;36346;48.280;14.292;2023-05-10T06:18:56;9.94;;;9.94;;
50417;SDS011;36346;48.280;14.292;2023-05-10T06:21:24;10.13;;;10.13;;
50417;SDS011;36346;48.280;14.292;2023-05-10T06:23:52;10.38;;;10.38;;
50417;SDS011;36346;48.280;14.292;2023-05-10T06:26:20;9.98;;;9.98;;
50417;SDS011;36346;48.280;14.292;2023-05-10T06:28:48;10.14;;;10.14;;
50417;SDS011;36346;48.280;14.292;2023-05-10T06:31:16;10.49;;;10.49;;
50417;SDS011;36346;48.280;14.292;2023-05-10T06:33:44;9.83;;;9.83;;
50417;SDS011;36346;48.280;14.292;2023-05-10T06:36:12;10.22;;;10.22;;
50417;SDS011;36346;48.280;14.292;2023-05-10T06:38:40;10.53;;;10.53;;
50417;SDS011;36346;48.280;14.292;2023-05-10T06:41:08;10.35;;;10.35;;
50417;SDS011;36346;48.280;14.292;2023-05-10T06:43:36;10.21;;;10.21;;
50417;SDS011;36346;48.280;14.292;2023-05-10T06:46:07;10.04;;;10.04;;
50417;SDS011;36346;48.280;14.292;2023-05-10T06:48:35;9.99;;;9.99;;
50417;SDS011;36346;48.280;14.292;2023-05-10T06:51:03;10.10;;;10.10;;
50417;SDS011;36346;48.280;14.292;2023-05-10T06:53:31;9.67;;;9.67;;
50417;SDS011;36346;48.280;14.292;2023-05-10T06:56:00;10.57;;;10.57;;
50417;SDS011;36346;48.280;14.292;2023-05-10T06:58:28;10.31;;;10.29;;
50417;SDS011;36346;48.280;14.292;2023-05-10T07:01:01;10.70;;;10.65;;
50417;SDS011;36346;48.280;14.292;2023-05-10T07:03:30;9.74;;;9.74;;
50417;SDS011;36346;48.280;14.292;2023-05-10T07:06:02;10.11;;;10.11;;
50417;SDS011;36346;48.280;14.292;2023-05-10T07:08:31;9.71;;;9.71;;
50417;SDS011;36346;48.280;14.292;2023-05-10T07:11:02;9.96;;;9.96;;
50417;SDS011;36346;48.280;14.292;2023-05-10T07:13:31;9.82;;;9.82;;
50417;SDS011;36346;48.280;14.292;2023-05-10T07:16:00;9.11;;;9.11;;
50417;SDS011;36346;48.280;14.292;2023-05-10T07:18:29;9.64;;;9.64;;
50417;SDS011;36346;48.280;14.292;2023-05-10T07:20:57;9.85;;;9.85;;
50417;SDS011;36346;48.280;14.292;2023-05-10T07:23:25;9.76;;;9.76;;
50417;SDS011;36346;48.280;14.292;2023-05-10T07:25:53;10.01;;;10.01;;
50417;SDS011;36346;48.280;14.292;2023-05-10T07:28:21;9.72;;;9.72;;
50417;SDS011;36346;48.280;14.292;2023-05-10T07:30:49;9.87;;;9.87;;
50417;SDS011;36346;48.280;14.292;2023-05-10T07:33:18;10.29;;;10.29;;
50417;SDS011;36346;48.280;14.292;2023-05-10T07:35:46;10.08;;;10.08;;
50417;SDS011;36346;48.280;14.292;2023-05-10T07:38:14;10.11;;;10.11;;
50417;SDS011;36346;48.280;14.292;2023-05-10T07:40:42;9.78;;;9.78;;
50417;SDS011;36346;48.280;14.292;2023-05-10T07:43:10;10.03;;;10.03;;
50417;SDS011;36346;48.280;14.292;2023-05-10T07:45:38;11.00;;;11.00;;
50417;SDS011;36346;48.280;14.292;2023-05-10T07:48:06;12.23;;;12.23;;
50417;SDS011;36346;48.280;14.292;2023-05-10T07:50:34;13.20;;;13.13;;
50417;SDS011;36346;48.280;14.292;2023-05-10T07:53:02;12.76;;;12.75;;
50417;SDS011;36346;48.280;14.292;2023-05-10T07:55:30;12.80;;;12.80;;
50417;SDS011;36346;48.280;14.292;2023-05-10T07:57:58;15.62;;;15.62;;
50417;SDS011;36346;48.280;14.292;2023-05-10T08:00:28;14.24;;;14.24;;
50417;SDS011;36346;48.280;14.292;2023-05-10T08:02:56;11.15;;;11.15;;
50417;SDS011;36346;48.280;14.292;2023-05-10T08:05:24;11.03;;;11.03;;
50417;SDS011;36346;48.280;14.292;2023-05-10T08:07:52;11.95;;;11.94;;
50417;SDS011;36346;48.280;14.292;2023-05-10T08:10:20;12.82;;;12.82;;
50417;SDS011;36346;48.280;14.292;2023-05-10T08:12:48;12.56;;;12.54;;
50417;SDS011;36346;48.280;14.292;2023-05-10T08:15:16;12.92;;;12.90;;
50417;SDS011;36346;48.280;14.292;2023-05-10T08:17:45;12.56;;;12.56;;
50417;SDS011;36346;48.280;14.292;2023-05-10T08:20:13;13.13;;;13.13;;
50417;SDS011;36346;48.280;14.292;2023-05-10T08:22:47;13.20;;;13.20;;
50417;SDS011;36346;48.280;14.292;2023-05-10T08:25:18;13.23;;;13.23;;
50417;SDS011;36346;48.280;14.292;2023-05-10T08:27:46;13.76;;;13.76;;
50417;SDS011;36346;48.280;14.292;2023-05-10T08:30:14;12.52;;;12.52;;
50417;SDS011;36346;48.280;14.292;2023-05-10T08:32:42;12.21;;;12.21;;
50417;SDS011;36346;48.280;14.292;2023-05-10T08:35:10;13.59;;;13.59;;
50417;SDS011;36346;48.280;14.292;2023-05-10T08:37:38;12.62;;;12.62;;
50417;SDS011;36346;48.280;14.292;2023-05-10T08:40:06;11.97;;;11.97;;
50417;SDS011;36346;48.280;14.292;2023-05-10T08:42:39;13.25;;;13.25;;
50417;SDS011;36346;48.280;14.292;2023-05-10T08:45:11;13.04;;;13.04;;
50417;SDS011;36346;48.280;14.292;2023-05-10T08:47:40;13.05;;;12.98;;
50417;SDS011;36346;48.280;14.292;2023-05-10T08:50:08;12.77;;;12.75;;
50417;SDS011;36346;48.280;14.292;2023-05-10T08:52:38;13.20;;;13.20;;
50417;SDS011;36346;48.280;14.292;2023-05-10T08:55:08;13.76;;;13.76;;
50417;SDS011;36346;48.280;14.292;2023-05-10T08:57:36;14.54;;;14.54;;
50417;SDS011;36346;48.280;14.292;2023-05-10T09:00:04;14.46;;;14.46;;
50417;SDS011;36346;48.280;14.292;2023-05-10T09:02:33;14.17;;;14.17;;
50417;SDS011;36346;48.280;14.292;2023-05-10T09:05:03;13.68;;;13.68;;
50417;SDS011;36346;48.280;14.292;2023-05-10T09:07:32;13.65;;;13.65;;
50417;SDS011;36346;48.280;14.292;2023-05-10T09:10:02;13.00;;;13.00;;
50417;SDS011;36346;48.280;14.292;2023-05-10T09:12:32;13.07;;;13.07;;
50417;SDS011;36346;48.280;14.292;2023-05-10T09:15:01;13.64;;;13.64;;
50417;SDS011;36346;48.280;14.292;2023-05-10T09:17:29;13.55;;;13.55;;
50417;SDS011;36346;48.280;14.292;2023-05-10T09:20:01;14.37;;;14.37;;
50417;SDS011;36346;48.280;14.292;2023-05-10T09:22:31;14.20;;;14.20;;
50417;SDS011;36346;48.280;14.292;2023-05-10T09:27:35;14.80;;;14.80;;
50417;SDS011;36346;48.280;14.292;2023-05-10T09:30:03;13.95;;;13.95;;
50417;SDS011;36346;48.280;14.292;2023-05-10T09:35:14;12.95;;;12.95;;
50417;SDS011;36346;48.280;14.292;2023-05-10T09:37:49;13.21;;;13.21;;
50417;SDS011;36346;48.280;14.292;2023-05-10T09:40:18;14.15;;;14.15;;
50417;SDS011;36346;48.280;14.292;2023-05-10T09:43:00;13.48;;;13.48;;
50417;SDS011;36346;48.280;14.292;2023-05-10T09:45:31;12.61;;;12.61;;
50417;SDS011;36346;48.280;14.292;2023-05-10T09:48:04;12.62;;;12.62;;
50417;SDS011;36346;48.280;14.292;2023-05-10T09:50:33;12.68;;;12.68;;
50417;SDS011;36346;48.280;14.292;2023-05-10T09:53:02;12.39;;;12.39;;
50417;SDS011;36346;48.280;14.292;2023-05-10T09:55:41;12.56;;;12.56;;
50417;SDS011;36346;48.280;14.292;2023-05-10T09:58:14;11.73;;;11.73;;
50417;SDS011;36346;48.280;14.292;2023-05-10T10:00:43;11.85;;;11.85;;
50417;SDS011;36346;48.280;14.292;2023-05-10T10:03:15;12.35;;;12.35;;
50417;SDS011;36346;48.280;14.292;2023-05-10T10:05:44;12.73;;;12.73;;
50417;SDS011;36346;48.280;14.292;2023-05-10T10:08:14;12.36;;;12.36;;
50417;SDS011;36346;48.280;14.292;2023-05-10T10:10:43;12.27;;;12.27;;
50417;SDS011;36346;48.280;14.292;2023-05-10T10:13:14;12.60;;;12.60;;
50417;SDS011;36346;48.280;14.292;2023-05-10T10:15:42;13.33;;;13.33;;
50417;SDS011;36346;48.280;14.292;2023-05-10T10:18:12;13.69;;;13.69;;
50417;SDS011;36346;48.280;14.292;2023-05-10T10:20:42;17.02;;;17.01;;
50417;SDS011;36346;48.280;14.292;2023-05-10T10:23:10;16.37;;;16.37;;
50417;SDS011;36346;48.280;14.292;2023-05-10T10:25:38;16.65;;;16.65;;
50417;SDS011;36346;48.280;14.292;2023-05-10T10:30:49;12.25;;;12.25;;
50417;SDS011;36346;48.280;14.292;2023-05-10T10:33:38;12.87;;;12.87;;
50417;SDS011;36346;48.280;14.292;2023-05-10T10:36:31;12.75;;;12.75;;
50417;SDS011;36346;48.280;14.292;2023-05-10T10:39:01;12.96;;;12.96;;
50417;SDS011;36346;48.280;14.292;2023-05-10T10:52:15;16.61;;;16.61;;
50417;SDS011;36346;48.280;14.292;2023-05-10T10:55:07;14.10;;;14.10;;
50417;SDS011;36346;48.280;14.292;2023-05-10T11:08:00;15.73;;;15.73;;
50417;SDS011;36346;48.280;14.292;2023-05-10T11:10:35;16.18;;;16.18;;
50417;SDS011;36346;48.280;14.292;2023-05-10T11:13:07;17.59;;;17.59;;
50417;SDS011;36346;48.280;14.292;2023-05-10T11:15:38;16.59;;;16.59;;
50417;SDS011;36346;48.280;14.292;2023-05-10T11:18:17;13.72;;;13.72;;
50417;SDS011;36346;48.280;14.292;2023-05-10T11:20:50;12.88;;;12.88;;
50417;SDS011;36346;48.280;14.292;2023-05-10T11:23:31;12.96;;;12.96;;
50417;SDS011;36346;48.280;14.292;2023-05-10T11:26:00;13.96;;;13.96;;
50417;SDS011;36346;48.280;14.292;2023-05-10T11:28:32;13.84;;;13.84;;
50417;SDS011;36346;48.280;14.292;2023-05-10T11:31:00;12.40;;;12.40;;
50417;SDS011;36346;48.280;14.292;2023-05-10T11:33:28;12.19;;;12.19;;
50417;SDS011;36346;48.280;14.292;2023-05-10T11:35:56;11.39;;;11.39;;
50417;SDS011;36346;48.280;14.292;2023-05-10T11:38:24;11.17;;;11.17;;
50417;SDS011;36346;48.280;14.292;2023-05-10T11:40:52;10.73;;;10.73;;
50417;SDS011;36346;48.280;14.292;2023-05-10T11:43:23;12.01;;;12.01;;
50417;SDS011;36346;48.280;14.292;2023-05-10T11:45:51;11.61;;;11.61;;
50417;SDS011;36346;48.280;14.292;2023-05-10T11:48:19;10.48;;;10.48;;
50417;SDS011;36346;48.280;14.292;2023-05-10T11:50:51;11.29;;;11.29;;
50417;SDS011;36346;48.280;14.292;2023-05-10T11:53:21;11.37;;;11.37;;
50417;SDS011;36346;48.280;14.292;2023-05-10T11:55:52;11.38;;;11.38;;
50417;SDS011;36346;48.280;14.292;2023-05-10T11:58:20;12.07;;;12.07;;
50417;SDS011;36346;48.280;14.292;2023-05-10T12:00:48;11.88;;;11.88;;
50417;SDS011;36346;48.280;14.292;2023-05-10T12:03:17;12.35;;;12.35;;
50417;SDS011;36346;48.280;14.292;2023-05-10T12:05:46;13.24;;;13.24;;
50417;SDS011;36346;48.280;14.292;2023-05-10T12:08:14;12.97;;;12.97;;
50417;SDS011;36346;48.280;14.292;2023-05-10T12:10:43;12.85;;;12.85;;
50417;SDS011;36346;48.280;14.292;2023-05-10T12:13:12;12.61;;;12.61;;
50417;SDS011;36346;48.280;14.292;2023-05-10T12:15:42;12.44;;;12.44;;
50417;SDS011;36346;48.280;14.292;2023-05-10T12:18:11;11.42;;;11.42;;
50417;SDS011;36346;48.280;14.292;2023-05-10T12:20:40;10.91;;;10.91;;
50417;SDS011;36346;48.280;14.292;2023-05-10T12:23:09;11.66;;;11.66;;
50417;SDS011;36346;48.280;14.292;2023-05-10T12:25:37;11.44;;;11.44;;
50417;SDS011;36346;48.280;14.292;2023-05-10T12:28:07;11.20;;;11.20;;
50417;SDS011;36346;48.280;14.292;2023-05-10T12:30:37;11.38;;;11.38;;
50417;SDS011;36346;48.280;14.292;2023-05-10T12:33:10;10.71;;;10.71;;
50417;SDS011;36346;48.280;14.292;2023-05-10T12:35:43;10.61;;;10.61;;
50417;SDS011;36346;48.280;14.292;2023-05-10T12:40:52;11.10;;;11.10;;
50417;SDS011;36346;48.280;14.292;2023-05-10T12:43:20;10.37;;;10.37;;
50417;SDS011;36346;48.280;14.292;2023-05-10T12:45:48;11.16;;;11.16;;
50417;SDS011;36346;48.280;14.292;2023-05-10T12:48:16;11.32;;;11.32;;
50417;SDS011;36346;48.280;14.292;2023-05-10T12:50:44;11.06;;;11.06;;
50417;SDS011;36346;48.280;14.292;2023-05-10T12:53:13;11.45;;;11.45;;
50417;SDS011;36346;48.280;14.292;2023-05-10T12:55:43;11.78;;;11.78;;
50417;SDS011;36346;48.280;14.292;2023-05-10T12:58:11;11.59;;;11.59;;
50417;SDS011;36346;48.280;14.292;2023-05-10T13:00:54;11.63;;;11.63;;
50417;SDS011;36346;48.280;14.292;2023-05-10T13:03:23;11.74;;;11.74;;
50417;SDS011;36346;48.280;14.292;2023-05-10T13:05:52;12.05;;;12.05;;
50417;SDS011;36346;48.280;14.292;2023-05-10T13:08:19;12.28;;;12.28;;
50417;SDS011;36346;48.280;14.292;2023-05-10T13:10:47;11.67;;;11.67;;
50417;SDS011;36346;48.280;14.292;2023-05-10T13:13:15;11.89;;;11.89;;
50417;SDS011;36346;48.280;14.292;2023-05-10T13:15:44;12.02;;;12.02;;
50417;SDS011;36346;48.280;14.292;2023-05-10T13:18:12;11.83;;;11.83;;
50417;SDS011;36346;48.280;14.292;2023-05-10T13:20:40;12.26;;;12.26;;
50417;SDS011;36346;48.280;14.292;2023-05-10T13:23:08;11.76;;;11.76;;
50417;SDS011;36346;48.280;14.292;2023-05-10T13:25:36;11.66;;;11.66;;
50417;SDS011;36346;48.280;14.292;2023-05-10T13:28:04;11.81;;;11.81;;
50417;SDS011;36346;48.280;14.292;2023-05-10T13:30:32;11.18;;;11.18;;
50417;SDS011;36346;48.280;14.292;2023-05-10T13:33:00;11.49;;;11.49;;
50417;SDS011;36346;48.280;14.292;2023-05-10T13:35:28;11.76;;;11.76;;
50417;SDS011;36346;48.280;14.292;2023-05-10T13:37:56;11.93;;;11.93;;
50417;SDS011;36346;48.280;14.292;2023-05-10T13:40:25;12.07;;;12.07;;
50417;SDS011;36346;48.280;14.292;2023-05-10T13:42:53;11.73;;;11.73;;
50417;SDS011;36346;48.280;14.292;2023-05-10T13:45:21;11.42;;;11.42;;
50417;SDS011;36346;48.280;14.292;2023-05-10T13:47:49;11.14;;;11.14;;
50417;SDS011;36346;48.280;14.292;2023-05-10T13:50:17;11.44;;;11.44;;
50417;SDS011;36346;48.280;14.292;2023-05-10T13:52:45;11.53;;;11.53;;
50417;SDS011;36346;48.280;14.292;2023-05-10T13:55:13;11.41;;;11.41;;
50417;SDS011;36346;48.280;14.292;2023-05-10T13:57:42;11.92;;;11.92;;
50417;SDS011;36346;48.280;14.292;2023-05-10T14:00:10;12.13;;;12.13;;
50417;SDS011;36346;48.280;14.292;2023-05-10T14:02:38;11.20;;;11.20;;
50417;SDS011;36346;48.280;14.292;2023-05-10T14:05:07;11.38;;;11.38;;
50417;SDS011;36346;48.280;14.292;2023-05-10T14:07:35;10.75;;;10.75;;
50417;SDS011;36346;48.280;14.292;2023-05-10T14:10:03;10.40;;;10.40;;
50417;SDS011;36346;48.280;14.292;2023-05-10T14:12:31;10.33;;;10.33;;
50417;SDS011;36346;48.280;14.292;2023-05-10T14:14:59;10.29;;;10.29;;
50417;SDS011;36346;48.280;14.292;2023-05-10T14:17:27;9.99;;;9.99;;
50417;SDS011;36346;48.280;14.292;2023-05-10T14:19:56;9.41;;;9.41;;
50417;SDS011;36346;48.280;14.292;2023-05-10T14:22:23;9.02;;;9.02;;
50417;SDS011;36346;48.280;14.292;2023-05-10T14:24:51;9.15;;;9.15;;
50417;SDS011;36346;48.280;14.292;2023-05-10T14:27:19;8.99;;;8.99;;
50417;SDS011;36346;48.280;14.292;2023-05-10T14:29:47;8.85;;;8.85;;
50417;SDS011;36346;48.280;14.292;2023-05-10T14:32:15;9.00;;;9.00;;
50417;SDS011;36346;48.280;14.292;2023-05-10T14:34:43;8.26;;;8.26;;
50417;SDS011;36346;48.280;14.292;2023-05-10T14:37:13;8.63;;;8.63;;
50417;SDS011;36346;48.280;14.292;2023-05-10T14:39:41;8.76;;;8.76;;
50417;SDS011;36346;48.280;14.292;2023-05-10T14:42:09;8.73;;;8.73;;
50417;SDS011;36346;48.280;14.292;2023-05-10T14:44:38;8.32;;;8.32;;
50417;SDS011;36346;48.280;14.292;2023-05-10T14:47:06;8.10;;;8.10;;
50417;SDS011;36346;48.280;14.292;2023-05-10T14:49:34;8.21;;;8.21;;
50417;SDS011;36346;48.280;14.292;2023-05-10T14:52:02;8.48;;;8.48;;
50417;SDS011;36346;48.280;14.292;2023-05-10T14:54:30;9.17;;;9.17;;
50417;SDS011;36346;48.280;14.292;2023-05-10T14:57:00;9.08;;;9.08;;
50417;SDS011;36346;48.280;14.292;2023-05-10T14:59:29;8.83;;;8.83;;
50417;SDS011;36346;48.280;14.292;2023-05-10T15:01:57;9.43;;;9.43;;
50417;SDS011;36346;48.280;14.292;2023-05-10T15:04:27;9.04;;;9.04;;
50417;SDS011;36346;48.280;14.292;2023-05-10T15:06:56;9.00;;;9.00;;
50417;SDS011;36346;48.280;14.292;2023-05-10T15:09:26;9.33;;;9.33;;
50417;SDS011;36346;48.280;14.292;2023-05-10T15:11:58;12.42;;;12.42;;
50417;SDS011;36346;48.280;14.292;2023-05-10T15:14:26;14.34;;;14.34;;
50417;SDS011;36346;48.280;14.292;2023-05-10T15:16:53;15.17;;;15.17;;
50417;SDS011;36346;48.280;14.292;2023-05-10T15:19:21;15.78;;;15.78;;
50417;SDS011;36346;48.280;14.292;2023-05-10T15:21:49;16.21;;;16.21;;